sensor_id;sensor_type;location;lat;lon;timestamp;P1;durP1;ratioP1;P2;durP2;ratioP2
72065;SDS011;59939;52.516;13.420;2022-08-19T00:00:41;21.60;;;13.30;;
72065;SDS011;59939;52.516;13.420;2022-08-19T00:03:48;21.55;;;13.70;;
72065;SDS011;59939;52.516;13.420;2022-08-19T00:06:53;20.50;;;14.32;;
72065;SDS011;59939;52.516;13.420;2022-08-19T00:09:58;20.52;;;14.30;;
72065;SDS011;59939;52.516;13.420;2022-08-19T00:13:03;22.23;;;14.57;;
72065;SDS011;59939;52.516;13.420;2022-08-19T00:16:09;22.42;;;15.05;;
72065;SDS011;59939;52.516;13.420;2022-08-19T00:19:15;21.75;;;14.35;;
72065;SDS011;59939;52.516;13.420;2022-08-19T00:22:23;20.05;;;13.90;;
72065;SDS011;59939;52.516;13.420;2022-08-19T00:25:28;21.08;;;14.60;;
72065;SDS011;59939;52.516;13.420;2022-08-19T00:28:33;22.02;;;15.40;;
72065;SDS011;59939;52.516;13.420;2022-08-19T00:31:39;21.92;;;14.68;;
72065;SDS011;59939;52.516;13.420;2022-08-19T00:34:47;24.05;;;15.63;;
72065;SDS011;59939;52.516;13.420;2022-08-19T00:37:51;23.63;;;16.23;;
72065;SDS011;59939;52.516;13.420;2022-08-19T00:40:56;22.92;;;15.95;;
72065;SDS011;59939;52.516;13.420;2022-08-19T00:44:02;24.50;;;16.92;;
72065;SDS011;59939;52.516;13.420;2022-08-19T00:47:32;22.80;;;16.85;;
72065;SDS011;59939;52.516;13.420;2022-08-19T00:50:36;25.52;;;17.00;;
72065;SDS011;59939;52.516;13.420;2022-08-19T00:53:46;25.40;;;17.33;;
72065;SDS011;59939;52.516;13.420;2022-08-19T00:56:51;28.67;;;18.00;;
72065;SDS011;59939;52.516;13.420;2022-08-19T00:59:57;26.92;;;19.27;;
72065;SDS011;59939;52.516;13.420;2022-08-19T01:03:03;29.35;;;20.65;;
72065;SDS011;59939;52.516;13.420;2022-08-19T01:06:10;28.55;;;19.45;;
72065;SDS011;59939;52.516;13.420;2022-08-19T01:09:15;24.40;;;17.85;;
72065;SDS011;59939;52.516;13.420;2022-08-19T01:12:19;25.45;;;19.30;;
72065;SDS011;59939;52.516;13.420;2022-08-19T01:15:25;29.00;;;20.13;;
72065;SDS011;59939;52.516;13.420;2022-08-19T01:18:42;26.48;;;19.42;;
72065;SDS011;59939;52.516;13.420;2022-08-19T01:21:59;27.50;;;20.42;;
72065;SDS011;59939;52.516;13.420;2022-08-19T01:25:44;28.85;;;19.73;;
72065;SDS011;59939;52.516;13.420;2022-08-19T01:28:57;25.42;;;17.65;;
72065;SDS011;59939;52.516;13.420;2022-08-19T01:32:04;25.60;;;18.27;;
72065;SDS011;59939;52.516;13.420;2022-08-19T01:35:10;28.13;;;19.48;;
72065;SDS011;59939;52.516;13.420;2022-08-19T01:38:23;25.48;;;18.27;;
72065;SDS011;59939;52.516;13.420;2022-08-19T01:41:35;28.20;;;20.30;;
72065;SDS011;59939;52.516;13.420;2022-08-19T01:44:39;26.38;;;19.98;;
72065;SDS011;59939;52.516;13.420;2022-08-19T01:47:44;26.50;;;19.98;;
72065;SDS011;59939;52.516;13.420;2022-08-19T01:50:49;30.38;;;21.17;;
72065;SDS011;59939;52.516;13.420;2022-08-19T01:53:56;31.35;;;20.73;;
72065;SDS011;59939;52.516;13.420;2022-08-19T01:57:05;30.42;;;20.70;;
72065;SDS011;59939;52.516;13.420;2022-08-19T02:00:19;29.15;;;19.90;;
72065;SDS011;59939;52.516;13.420;2022-08-19T02:03:27;31.00;;;19.88;;
72065;SDS011;59939;52.516;13.420;2022-08-19T02:06:34;28.48;;;20.85;;
72065;SDS011;59939;52.516;13.420;2022-08-19T02:09:38;32.20;;;22.50;;
72065;SDS011;59939;52.516;13.420;2022-08-19T02:12:44;35.15;;;22.88;;
72065;SDS011;59939;52.516;13.420;2022-08-19T02:15:54;30.48;;;20.55;;
72065;SDS011;59939;52.516;13.420;2022-08-19T02:18:58;27.90;;;20.63;;
72065;SDS011;59939;52.516;13.420;2022-08-19T02:22:04;29.83;;;21.38;;
72065;SDS011;59939;52.516;13.420;2022-08-19T02:25:10;32.42;;;23.38;;
72065;SDS011;59939;52.516;13.420;2022-08-19T02:28:16;32.35;;;25.00;;
72065;SDS011;59939;52.516;13.420;2022-08-19T02:31:27;34.75;;;24.27;;
72065;SDS011;59939;52.516;13.420;2022-08-19T02:34:32;28.85;;;17.50;;
72065;SDS011;59939;52.516;13.420;2022-08-19T02:37:43;27.27;;;19.92;;
72065;SDS011;59939;52.516;13.420;2022-08-19T02:41:07;27.17;;;21.13;;
72065;SDS011;59939;52.516;13.420;2022-08-19T02:44:19;34.47;;;30.77;;
72065;SDS011;59939;52.516;13.420;2022-08-19T02:47:23;32.95;;;29.48;;
72065;SDS011;59939;52.516;13.420;2022-08-19T02:50:27;31.67;;;28.48;;
72065;SDS011;59939;52.516;13.420;2022-08-19T02:53:31;34.45;;;31.10;;
72065;SDS011;59939;52.516;13.420;2022-08-19T02:56:36;32.92;;;29.58;;
72065;SDS011;59939;52.516;13.420;2022-08-19T02:59:42;32.97;;;29.52;;
72065;SDS011;59939;52.516;13.420;2022-08-19T03:02:46;33.40;;;29.80;;
72065;SDS011;59939;52.516;13.420;2022-08-19T03:06:02;30.33;;;26.88;;
72065;SDS011;59939;52.516;13.420;2022-08-19T03:09:14;28.85;;;25.55;;
72065;SDS011;59939;52.516;13.420;2022-08-19T03:12:19;27.90;;;24.35;;
72065;SDS011;59939;52.516;13.420;2022-08-19T03:15:24;27.02;;;22.90;;
72065;SDS011;59939;52.516;13.420;2022-08-19T03:18:28;27.40;;;22.65;;
72065;SDS011;59939;52.516;13.420;2022-08-19T03:21:34;36.47;;;24.13;;
72065;SDS011;59939;52.516;13.420;2022-08-19T03:24:38;27.55;;;22.38;;
72065;SDS011;59939;52.516;13.420;2022-08-19T03:27:43;28.00;;;23.17;;
72065;SDS011;59939;52.516;13.420;2022-08-19T03:34:24;31.60;;;25.55;;
72065;SDS011;59939;52.516;13.420;2022-08-19T03:37:32;31.70;;;24.15;;
72065;SDS011;59939;52.516;13.420;2022-08-19T03:40:44;32.22;;;25.30;;
72065;SDS011;59939;52.516;13.420;2022-08-19T03:43:49;29.30;;;23.92;;
72065;SDS011;59939;52.516;13.420;2022-08-19T03:46:57;30.48;;;24.58;;
72065;SDS011;59939;52.516;13.420;2022-08-19T03:50:04;31.90;;;24.05;;
72065;SDS011;59939;52.516;13.420;2022-08-19T03:53:09;29.20;;;22.88;;
72065;SDS011;59939;52.516;13.420;2022-08-19T03:56:14;32.05;;;24.23;;
72065;SDS011;59939;52.516;13.420;2022-08-19T03:59:20;28.77;;;23.05;;
72065;SDS011;59939;52.516;13.420;2022-08-19T04:02:29;26.95;;;22.00;;
72065;SDS011;59939;52.516;13.420;2022-08-19T04:05:36;27.88;;;21.92;;
72065;SDS011;59939;52.516;13.420;2022-08-19T04:08:42;29.20;;;22.60;;
72065;SDS011;59939;52.516;13.420;2022-08-19T04:11:48;26.00;;;21.52;;
72065;SDS011;59939;52.516;13.420;2022-08-19T04:14:59;24.92;;;20.20;;
72065;SDS011;59939;52.516;13.420;2022-08-19T04:18:03;26.25;;;20.40;;
72065;SDS011;59939;52.516;13.420;2022-08-19T04:21:15;25.08;;;20.27;;
72065;SDS011;59939;52.516;13.420;2022-08-19T04:24:36;26.40;;;20.00;;
72065;SDS011;59939;52.516;13.420;2022-08-19T04:27:42;26.65;;;20.92;;
72065;SDS011;59939;52.516;13.420;2022-08-19T04:30:50;25.27;;;20.30;;
72065;SDS011;59939;52.516;13.420;2022-08-19T04:33:57;24.88;;;20.10;;
72065;SDS011;59939;52.516;13.420;2022-08-19T04:37:11;25.60;;;20.15;;
72065;SDS011;59939;52.516;13.420;2022-08-19T04:40:31;25.25;;;19.42;;
72065;SDS011;59939;52.516;13.420;2022-08-19T04:44:00;26.63;;;20.00;;
72065;SDS011;59939;52.516;13.420;2022-08-19T04:47:10;27.42;;;20.83;;
72065;SDS011;59939;52.516;13.420;2022-08-19T04:50:15;26.45;;;20.52;;
72065;SDS011;59939;52.516;13.420;2022-08-19T04:53:21;27.45;;;20.65;;
72065;SDS011;59939;52.516;13.420;2022-08-19T04:56:26;23.92;;;19.20;;
72065;SDS011;59939;52.516;13.420;2022-08-19T04:59:38;28.00;;;20.33;;
72065;SDS011;59939;52.516;13.420;2022-08-19T05:02:45;24.92;;;18.48;;
72065;SDS011;59939;52.516;13.420;2022-08-19T05:05:52;25.10;;;18.38;;
72065;SDS011;59939;52.516;13.420;2022-08-19T05:08:59;26.35;;;20.55;;
72065;SDS011;59939;52.516;13.420;2022-08-19T05:12:04;26.50;;;20.00;;
72065;SDS011;59939;52.516;13.420;2022-08-19T05:15:09;27.55;;;18.40;;
72065;SDS011;59939;52.516;13.420;2022-08-19T05:18:15;24.90;;;19.58;;
72065;SDS011;59939;52.516;13.420;2022-08-19T05:21:43;24.50;;;18.65;;
72065;SDS011;59939;52.516;13.420;2022-08-19T05:25:27;23.85;;;18.75;;
72065;SDS011;59939;52.516;13.420;2022-08-19T05:32:03;24.85;;;18.00;;
72065;SDS011;59939;52.516;13.420;2022-08-19T05:35:09;23.33;;;18.20;;
72065;SDS011;59939;52.516;13.420;2022-08-19T05:38:16;23.63;;;17.80;;
72065;SDS011;59939;52.516;13.420;2022-08-19T05:41:21;22.77;;;17.02;;
72065;SDS011;59939;52.516;13.420;2022-08-19T05:44:36;24.98;;;17.52;;
72065;SDS011;59939;52.516;13.420;2022-08-19T05:47:47;24.65;;;17.92;;
72065;SDS011;59939;52.516;13.420;2022-08-19T05:50:51;22.63;;;16.88;;
72065;SDS011;59939;52.516;13.420;2022-08-19T05:53:56;21.83;;;16.50;;
72065;SDS011;59939;52.516;13.420;2022-08-19T05:57:00;26.40;;;17.73;;
72065;SDS011;59939;52.516;13.420;2022-08-19T06:00:07;26.23;;;18.13;;
72065;SDS011;59939;52.516;13.420;2022-08-19T06:03:14;23.38;;;17.15;;
72065;SDS011;59939;52.516;13.420;2022-08-19T06:06:19;23.02;;;16.90;;
72065;SDS011;59939;52.516;13.420;2022-08-19T06:09:24;23.55;;;17.45;;
72065;SDS011;59939;52.516;13.420;2022-08-19T06:12:29;26.05;;;18.63;;
72065;SDS011;59939;52.516;13.420;2022-08-19T06:15:37;23.60;;;17.15;;
72065;SDS011;59939;52.516;13.420;2022-08-19T06:18:41;23.55;;;17.02;;
72065;SDS011;59939;52.516;13.420;2022-08-19T06:21:51;23.23;;;17.65;;
72065;SDS011;59939;52.516;13.420;2022-08-19T06:24:59;22.77;;;16.50;;
72065;SDS011;59939;52.516;13.420;2022-08-19T06:28:03;24.60;;;17.40;;
72065;SDS011;59939;52.516;13.420;2022-08-19T06:31:18;25.80;;;18.90;;
72065;SDS011;59939;52.516;13.420;2022-08-19T06:34:24;23.90;;;16.95;;
72065;SDS011;59939;52.516;13.420;2022-08-19T06:37:31;23.42;;;18.23;;
72065;SDS011;59939;52.516;13.420;2022-08-19T06:40:47;25.42;;;18.70;;
72065;SDS011;59939;52.516;13.420;2022-08-19T06:43:52;25.20;;;17.65;;
72065;SDS011;59939;52.516;13.420;2022-08-19T06:46:57;24.63;;;18.63;;
72065;SDS011;59939;52.516;13.420;2022-08-19T06:50:02;24.08;;;17.73;;
72065;SDS011;59939;52.516;13.420;2022-08-19T06:53:08;22.75;;;17.35;;
72065;SDS011;59939;52.516;13.420;2022-08-19T06:56:13;23.88;;;17.63;;
72065;SDS011;59939;52.516;13.420;2022-08-19T06:59:20;24.95;;;18.60;;
72065;SDS011;59939;52.516;13.420;2022-08-19T07:02:26;26.75;;;17.58;;
72065;SDS011;59939;52.516;13.420;2022-08-19T07:05:30;25.40;;;18.65;;
72065;SDS011;59939;52.516;13.420;2022-08-19T07:08:35;25.90;;;18.55;;
72065;SDS011;59939;52.516;13.420;2022-08-19T07:11:50;26.30;;;17.98;;
72065;SDS011;59939;52.516;13.420;2022-08-19T07:14:57;27.45;;;19.58;;
72065;SDS011;59939;52.516;13.420;2022-08-19T07:18:01;25.08;;;19.45;;
72065;SDS011;59939;52.516;13.420;2022-08-19T07:21:06;27.25;;;19.45;;
72065;SDS011;59939;52.516;13.420;2022-08-19T07:24:18;26.92;;;18.77;;
72065;SDS011;59939;52.516;13.420;2022-08-19T07:27:25;23.95;;;18.15;;
72065;SDS011;59939;52.516;13.420;2022-08-19T07:30:43;24.75;;;18.08;;
72065;SDS011;59939;52.516;13.420;2022-08-19T07:34:05;25.42;;;19.30;;
72065;SDS011;59939;52.516;13.420;2022-08-19T07:37:12;26.83;;;19.17;;
72065;SDS011;59939;52.516;13.420;2022-08-19T07:40:16;27.85;;;18.85;;
72065;SDS011;59939;52.516;13.420;2022-08-19T07:43:22;25.15;;;19.45;;
72065;SDS011;59939;52.516;13.420;2022-08-19T07:46:34;25.23;;;18.48;;
72065;SDS011;59939;52.516;13.420;2022-08-19T07:49:39;27.13;;;18.95;;
72065;SDS011;59939;52.516;13.420;2022-08-19T07:52:45;29.50;;;19.48;;
72065;SDS011;59939;52.516;13.420;2022-08-19T07:55:50;27.30;;;19.73;;
72065;SDS011;59939;52.516;13.420;2022-08-19T07:58:56;26.77;;;20.00;;
72065;SDS011;59939;52.516;13.420;2022-08-19T08:02:02;29.42;;;21.25;;
72065;SDS011;59939;52.516;13.420;2022-08-19T08:05:07;26.38;;;19.45;;
72065;SDS011;59939;52.516;13.420;2022-08-19T08:08:30;27.70;;;20.17;;
72065;SDS011;59939;52.516;13.420;2022-08-19T08:11:54;26.65;;;19.52;;
72065;SDS011;59939;52.516;13.420;2022-08-19T08:15:10;25.42;;;19.83;;
72065;SDS011;59939;52.516;13.420;2022-08-19T08:18:20;29.38;;;21.63;;
72065;SDS011;59939;52.516;13.420;2022-08-19T08:21:32;29.63;;;21.88;;
72065;SDS011;59939;52.516;13.420;2022-08-19T08:24:44;26.50;;;20.58;;
72065;SDS011;59939;52.516;13.420;2022-08-19T08:27:49;28.10;;;21.15;;
72065;SDS011;59939;52.516;13.420;2022-08-19T08:30:54;26.40;;;20.77;;
72065;SDS011;59939;52.516;13.420;2022-08-19T08:34:01;25.02;;;19.63;;
72065;SDS011;59939;52.516;13.420;2022-08-19T08:37:05;25.88;;;19.02;;
72065;SDS011;59939;52.516;13.420;2022-08-19T08:43:49;26.80;;;20.58;;
72065;SDS011;59939;52.516;13.420;2022-08-19T08:46:58;28.65;;;20.48;;
72065;SDS011;59939;52.516;13.420;2022-08-19T08:50:10;29.20;;;21.75;;
72065;SDS011;59939;52.516;13.420;2022-08-19T08:53:20;28.30;;;19.98;;
72065;SDS011;59939;52.516;13.420;2022-08-19T08:56:27;27.52;;;22.08;;
72065;SDS011;59939;52.516;13.420;2022-08-19T08:59:36;30.95;;;21.58;;
72065;SDS011;59939;52.516;13.420;2022-08-19T09:02:43;32.55;;;23.63;;
72065;SDS011;59939;52.516;13.420;2022-08-19T09:05:57;27.75;;;23.48;;
72065;SDS011;59939;52.516;13.420;2022-08-19T09:09:13;32.13;;;24.85;;
72065;SDS011;59939;52.516;13.420;2022-08-19T09:12:25;29.98;;;22.83;;
72065;SDS011;59939;52.516;13.420;2022-08-19T09:15:47;30.80;;;25.00;;
72065;SDS011;59939;52.516;13.420;2022-08-19T09:19:01;26.77;;;22.15;;
72065;SDS011;59939;52.516;13.420;2022-08-19T09:22:10;29.77;;;24.30;;
72065;SDS011;59939;52.516;13.420;2022-08-19T09:25:19;27.00;;;21.67;;
72065;SDS011;59939;52.516;13.420;2022-08-19T09:28:26;28.10;;;22.13;;
72065;SDS011;59939;52.516;13.420;2022-08-19T09:31:32;28.00;;;20.88;;
72065;SDS011;59939;52.516;13.420;2022-08-19T09:34:40;27.35;;;21.45;;
72065;SDS011;59939;52.516;13.420;2022-08-19T09:37:45;26.75;;;20.17;;
72065;SDS011;59939;52.516;13.420;2022-08-19T09:40:53;28.13;;;21.15;;
72065;SDS011;59939;52.516;13.420;2022-08-19T09:43:57;31.08;;;21.65;;
72065;SDS011;59939;52.516;13.420;2022-08-19T09:47:03;25.85;;;19.85;;
72065;SDS011;59939;52.516;13.420;2022-08-19T09:50:09;30.13;;;20.70;;
72065;SDS011;59939;52.516;13.420;2022-08-19T09:53:15;27.50;;;20.17;;
72065;SDS011;59939;52.516;13.420;2022-08-19T09:56:22;25.35;;;19.42;;
72065;SDS011;59939;52.516;13.420;2022-08-19T09:59:28;28.88;;;20.20;;
72065;SDS011;59939;52.516;13.420;2022-08-19T10:02:33;26.58;;;19.80;;
72065;SDS011;59939;52.516;13.420;2022-08-19T10:05:39;25.50;;;18.83;;
72065;SDS011;59939;52.516;13.420;2022-08-19T10:08:56;24.33;;;18.65;;
72065;SDS011;59939;52.516;13.420;2022-08-19T10:12:03;24.60;;;19.00;;
72065;SDS011;59939;52.516;13.420;2022-08-19T10:15:08;27.08;;;20.00;;
72065;SDS011;59939;52.516;13.420;2022-08-19T10:18:20;25.55;;;19.13;;
72065;SDS011;59939;52.516;13.420;2022-08-19T10:21:28;24.40;;;19.08;;
72065;SDS011;59939;52.516;13.420;2022-08-19T10:24:35;26.77;;;21.00;;
72065;SDS011;59939;52.516;13.420;2022-08-19T10:27:40;26.08;;;20.48;;
72065;SDS011;59939;52.516;13.420;2022-08-19T10:30:46;27.40;;;19.98;;
72065;SDS011;59939;52.516;13.420;2022-08-19T10:33:51;24.85;;;19.70;;
72065;SDS011;59939;52.516;13.420;2022-08-19T10:37:01;30.10;;;20.48;;
72065;SDS011;59939;52.516;13.420;2022-08-19T10:40:10;29.90;;;20.38;;
72065;SDS011;59939;52.516;13.420;2022-08-19T10:43:15;25.77;;;18.23;;
72065;SDS011;59939;52.516;13.420;2022-08-19T10:46:23;24.70;;;17.80;;
72065;SDS011;59939;52.516;13.420;2022-08-19T10:49:29;24.30;;;17.38;;
72065;SDS011;59939;52.516;13.420;2022-08-19T10:52:34;25.88;;;19.33;;
72065;SDS011;59939;52.516;13.420;2022-08-19T10:55:52;25.50;;;19.05;;
72065;SDS011;59939;52.516;13.420;2022-08-19T10:59:15;26.92;;;21.10;;
72065;SDS011;59939;52.516;13.420;2022-08-19T11:02:22;25.40;;;18.92;;
72065;SDS011;59939;52.516;13.420;2022-08-19T11:05:26;28.55;;;21.17;;
72065;SDS011;59939;52.516;13.420;2022-08-19T11:08:32;27.92;;;18.67;;
72065;SDS011;59939;52.516;13.420;2022-08-19T11:11:38;26.17;;;17.48;;
72065;SDS011;59939;52.516;13.420;2022-08-19T11:14:45;27.35;;;20.25;;
72065;SDS011;59939;52.516;13.420;2022-08-19T11:17:53;23.88;;;18.58;;
72065;SDS011;59939;52.516;13.420;2022-08-19T11:24:35;31.45;;;22.77;;
72065;SDS011;59939;52.516;13.420;2022-08-19T11:27:40;30.40;;;21.90;;
72065;SDS011;59939;52.516;13.420;2022-08-19T11:30:48;25.48;;;19.45;;
72065;SDS011;59939;52.516;13.420;2022-08-19T11:33:58;26.85;;;17.85;;
72065;SDS011;59939;52.516;13.420;2022-08-19T11:37:05;24.70;;;17.73;;
72065;SDS011;59939;52.516;13.420;2022-08-19T11:40:18;28.63;;;19.42;;
72065;SDS011;59939;52.516;13.420;2022-08-19T11:43:25;23.92;;;19.00;;
72065;SDS011;59939;52.516;13.420;2022-08-19T11:46:30;23.55;;;17.17;;
72065;SDS011;59939;52.516;13.420;2022-08-19T11:49:35;22.88;;;16.63;;
72065;SDS011;59939;52.516;13.420;2022-08-19T11:52:39;23.83;;;16.67;;
72065;SDS011;59939;52.516;13.420;2022-08-19T11:55:43;24.58;;;16.50;;
72065;SDS011;59939;52.516;13.420;2022-08-19T11:58:49;21.88;;;16.73;;
72065;SDS011;59939;52.516;13.420;2022-08-19T12:01:53;22.17;;;16.35;;
72065;SDS011;59939;52.516;13.420;2022-08-19T12:04:57;22.40;;;15.95;;
72065;SDS011;59939;52.516;13.420;2022-08-19T12:08:02;23.45;;;15.77;;
72065;SDS011;59939;52.516;13.420;2022-08-19T12:11:07;22.02;;;15.32;;
72065;SDS011;59939;52.516;13.420;2022-08-19T12:14:12;21.20;;;14.35;;
72065;SDS011;59939;52.516;13.420;2022-08-19T12:17:18;21.50;;;15.27;;
72065;SDS011;59939;52.516;13.420;2022-08-19T12:20:23;19.77;;;14.73;;
72065;SDS011;59939;52.516;13.420;2022-08-19T12:23:28;21.08;;;15.68;;
72065;SDS011;59939;52.516;13.420;2022-08-19T12:26:32;22.58;;;15.10;;
72065;SDS011;59939;52.516;13.420;2022-08-19T12:29:36;20.48;;;14.15;;
72065;SDS011;59939;52.516;13.420;2022-08-19T12:32:40;21.23;;;14.15;;
72065;SDS011;59939;52.516;13.420;2022-08-19T12:35:47;18.38;;;12.35;;
72065;SDS011;59939;52.516;13.420;2022-08-19T12:38:52;19.45;;;12.00;;
72065;SDS011;59939;52.516;13.420;2022-08-19T12:41:56;19.95;;;12.02;;
72065;SDS011;59939;52.516;13.420;2022-08-19T12:45:03;17.85;;;11.55;;
72065;SDS011;59939;52.516;13.420;2022-08-19T12:48:07;17.85;;;11.02;;
72065;SDS011;59939;52.516;13.420;2022-08-19T12:51:13;19.33;;;10.93;;
72065;SDS011;59939;52.516;13.420;2022-08-19T12:54:25;17.98;;;11.45;;
72065;SDS011;59939;52.516;13.420;2022-08-19T12:57:30;18.10;;;12.20;;
72065;SDS011;59939;52.516;13.420;2022-08-19T13:00:36;22.10;;;12.88;;
72065;SDS011;59939;52.516;13.420;2022-08-19T13:03:42;19.05;;;11.80;;
72065;SDS011;59939;52.516;13.420;2022-08-19T13:06:52;18.80;;;13.02;;
72065;SDS011;59939;52.516;13.420;2022-08-19T13:10:00;20.95;;;13.52;;
72065;SDS011;59939;52.516;13.420;2022-08-19T13:13:06;20.77;;;13.35;;
72065;SDS011;59939;52.516;13.420;2022-08-19T13:16:12;21.77;;;13.13;;
72065;SDS011;59939;52.516;13.420;2022-08-19T13:19:17;19.17;;;12.77;;
72065;SDS011;59939;52.516;13.420;2022-08-19T13:22:26;21.17;;;14.00;;
72065;SDS011;59939;52.516;13.420;2022-08-19T13:25:30;18.38;;;13.15;;
72065;SDS011;59939;52.516;13.420;2022-08-19T13:28:42;21.02;;;13.40;;
72065;SDS011;59939;52.516;13.420;2022-08-19T13:32:09;20.85;;;13.65;;
72065;SDS011;59939;52.516;13.420;2022-08-19T13:35:51;19.48;;;13.48;;
72065;SDS011;59939;52.516;13.420;2022-08-19T13:39:01;22.23;;;13.35;;
72065;SDS011;59939;52.516;13.420;2022-08-19T13:42:09;21.52;;;13.50;;
72065;SDS011;59939;52.516;13.420;2022-08-19T13:45:15;21.00;;;13.70;;
72065;SDS011;59939;52.516;13.420;2022-08-19T13:48:22;19.98;;;14.30;;
72065;SDS011;59939;52.516;13.420;2022-08-19T13:51:27;21.95;;;13.68;;
72065;SDS011;59939;52.516;13.420;2022-08-19T13:54:33;20.67;;;14.13;;
72065;SDS011;59939;52.516;13.420;2022-08-19T13:57:37;21.70;;;13.90;;
72065;SDS011;59939;52.516;13.420;2022-08-19T14:00:44;20.42;;;13.98;;
72065;SDS011;59939;52.516;13.420;2022-08-19T14:03:50;21.27;;;14.07;;
72065;SDS011;59939;52.516;13.420;2022-08-19T14:06:55;20.65;;;14.05;;
72065;SDS011;59939;52.516;13.420;2022-08-19T14:09:59;20.13;;;14.50;;
72065;SDS011;59939;52.516;13.420;2022-08-19T14:13:03;22.77;;;14.15;;
72065;SDS011;59939;52.516;13.420;2022-08-19T14:16:10;18.77;;;13.75;;
72065;SDS011;59939;52.516;13.420;2022-08-19T14:19:20;19.75;;;14.02;;
72065;SDS011;59939;52.516;13.420;2022-08-19T14:22:24;20.95;;;14.20;;
72065;SDS011;59939;52.516;13.420;2022-08-19T14:25:29;19.65;;;13.93;;
72065;SDS011;59939;52.516;13.420;2022-08-19T14:28:37;21.77;;;13.80;;
72065;SDS011;59939;52.516;13.420;2022-08-19T14:31:44;19.02;;;12.70;;
72065;SDS011;59939;52.516;13.420;2022-08-19T14:34:49;22.48;;;14.80;;
72065;SDS011;59939;52.516;13.420;2022-08-19T14:37:53;22.02;;;14.02;;
72065;SDS011;59939;52.516;13.420;2022-08-19T14:41:14;20.67;;;13.30;;
72065;SDS011;59939;52.516;13.420;2022-08-19T14:44:23;19.05;;;12.95;;
72065;SDS011;59939;52.516;13.420;2022-08-19T14:47:28;18.27;;;12.07;;
72065;SDS011;59939;52.516;13.420;2022-08-19T14:50:32;20.73;;;13.30;;
72065;SDS011;59939;52.516;13.420;2022-08-19T14:53:38;20.38;;;13.30;;
72065;SDS011;59939;52.516;13.420;2022-08-19T14:56:42;19.45;;;13.65;;
72065;SDS011;59939;52.516;13.420;2022-08-19T14:59:47;20.15;;;13.90;;
72065;SDS011;59939;52.516;13.420;2022-08-19T15:02:52;21.30;;;13.70;;
72065;SDS011;59939;52.516;13.420;2022-08-19T15:06:03;19.42;;;12.98;;
72065;SDS011;59939;52.516;13.420;2022-08-19T15:09:09;20.52;;;13.93;;
72065;SDS011;59939;52.516;13.420;2022-08-19T15:12:14;18.83;;;13.05;;
72065;SDS011;59939;52.516;13.420;2022-08-19T15:15:18;21.33;;;11.85;;
72065;SDS011;59939;52.516;13.420;2022-08-19T15:18:33;18.02;;;11.52;;
72065;SDS011;59939;52.516;13.420;2022-08-19T15:21:38;19.33;;;12.13;;
72065;SDS011;59939;52.516;13.420;2022-08-19T15:24:53;17.50;;;11.13;;
72065;SDS011;59939;52.516;13.420;2022-08-19T15:28:00;19.25;;;11.77;;
72065;SDS011;59939;52.516;13.420;2022-08-19T15:31:11;18.08;;;11.82;;
72065;SDS011;59939;52.516;13.420;2022-08-19T15:34:16;17.42;;;11.50;;
72065;SDS011;59939;52.516;13.420;2022-08-19T15:37:20;17.98;;;10.70;;
72065;SDS011;59939;52.516;13.420;2022-08-19T15:40:37;18.23;;;11.57;;
72065;SDS011;59939;52.516;13.420;2022-08-19T15:43:41;19.40;;;11.73;;
72065;SDS011;59939;52.516;13.420;2022-08-19T15:46:46;21.15;;;11.98;;
72065;SDS011;59939;52.516;13.420;2022-08-19T15:49:54;21.10;;;13.20;;
72065;SDS011;59939;52.516;13.420;2022-08-19T15:53:02;18.65;;;11.48;;
72065;SDS011;59939;52.516;13.420;2022-08-19T15:56:08;17.95;;;11.50;;
72065;SDS011;59939;52.516;13.420;2022-08-19T15:59:13;18.38;;;12.80;;
72065;SDS011;59939;52.516;13.420;2022-08-19T16:02:35;19.85;;;11.82;;
72065;SDS011;59939;52.516;13.420;2022-08-19T16:05:58;18.23;;;10.80;;
72065;SDS011;59939;52.516;13.420;2022-08-19T16:09:24;18.95;;;11.35;;
72065;SDS011;59939;52.516;13.420;2022-08-19T16:12:32;19.35;;;12.25;;
72065;SDS011;59939;52.516;13.420;2022-08-19T16:15:36;19.35;;;12.73;;
72065;SDS011;59939;52.516;13.420;2022-08-19T16:18:44;20.25;;;13.45;;
72065;SDS011;59939;52.516;13.420;2022-08-19T16:21:51;20.25;;;14.30;;
72065;SDS011;59939;52.516;13.420;2022-08-19T16:24:57;21.48;;;14.90;;
72065;SDS011;59939;52.516;13.420;2022-08-19T16:28:02;22.63;;;14.10;;
72065;SDS011;59939;52.516;13.420;2022-08-19T16:31:07;20.45;;;14.65;;
72065;SDS011;59939;52.516;13.420;2022-08-19T16:34:12;21.58;;;14.73;;
72065;SDS011;59939;52.516;13.420;2022-08-19T16:37:17;19.50;;;13.75;;
72065;SDS011;59939;52.516;13.420;2022-08-19T16:40:21;21.45;;;14.65;;
72065;SDS011;59939;52.516;13.420;2022-08-19T16:43:26;21.23;;;15.00;;
72065;SDS011;59939;52.516;13.420;2022-08-19T16:46:33;21.92;;;13.90;;
72065;SDS011;59939;52.516;13.420;2022-08-19T16:49:37;20.83;;;14.45;;
72065;SDS011;59939;52.516;13.420;2022-08-19T16:52:43;21.75;;;16.00;;
72065;SDS011;59939;52.516;13.420;2022-08-19T16:55:50;23.63;;;14.57;;
72065;SDS011;59939;52.516;13.420;2022-08-19T16:58:56;22.02;;;14.68;;
72065;SDS011;59939;52.516;13.420;2022-08-19T17:02:02;24.25;;;15.13;;
72065;SDS011;59939;52.516;13.420;2022-08-19T17:05:07;23.30;;;17.20;;
72065;SDS011;59939;52.516;13.420;2022-08-19T17:08:13;22.48;;;15.65;;
72065;SDS011;59939;52.516;13.420;2022-08-19T17:11:20;19.40;;;13.68;;
72065;SDS011;59939;52.516;13.420;2022-08-19T17:14:27;20.48;;;14.27;;
72065;SDS011;59939;52.516;13.420;2022-08-19T17:17:34;22.92;;;14.60;;
72065;SDS011;59939;52.516;13.420;2022-08-19T17:20:40;20.58;;;14.35;;
72065;SDS011;59939;52.516;13.420;2022-08-19T17:23:47;23.23;;;14.88;;
72065;SDS011;59939;52.516;13.420;2022-08-19T17:30:23;20.20;;;13.85;;
72065;SDS011;59939;52.516;13.420;2022-08-19T17:33:28;18.83;;;13.30;;
72065;SDS011;59939;52.516;13.420;2022-08-19T17:36:32;19.95;;;13.50;;
72065;SDS011;59939;52.516;13.420;2022-08-19T17:39:37;20.45;;;13.00;;
72065;SDS011;59939;52.516;13.420;2022-08-19T17:42:43;19.13;;;13.68;;
72065;SDS011;59939;52.516;13.420;2022-08-19T17:45:48;18.20;;;13.02;;
72065;SDS011;59939;52.516;13.420;2022-08-19T17:48:55;18.25;;;12.27;;
72065;SDS011;59939;52.516;13.420;2022-08-19T17:52:00;17.65;;;10.60;;
72065;SDS011;59939;52.516;13.420;2022-08-19T17:55:04;16.05;;;11.00;;
72065;SDS011;59939;52.516;13.420;2022-08-19T17:58:10;17.17;;;10.18;;
72065;SDS011;59939;52.516;13.420;2022-08-19T18:01:17;18.58;;;10.60;;
72065;SDS011;59939;52.516;13.420;2022-08-19T18:04:22;15.57;;;9.50;;
72065;SDS011;59939;52.516;13.420;2022-08-19T18:07:36;16.80;;;10.07;;
72065;SDS011;59939;52.516;13.420;2022-08-19T18:10:42;15.75;;;9.50;;
72065;SDS011;59939;52.516;13.420;2022-08-19T18:13:53;16.63;;;10.48;;
72065;SDS011;59939;52.516;13.420;2022-08-19T18:17:04;16.75;;;10.23;;
72065;SDS011;59939;52.516;13.420;2022-08-19T18:20:13;17.23;;;10.43;;